sensor_id;sensor_type;location;lat;lon;timestamp;P1;durP1;ratioP1;P2;durP2;ratioP2
8187;SDS011;4135;49.184;9.722;2023-03-05T00:00:18;9.43;;;4.32;;
8187;SDS011;4135;49.184;9.722;2023-03-05T00:02:47;7.60;;;4.68;;
8187;SDS011;4135;49.184;9.722;2023-03-05T00:05:17;6.40;;;3.95;;
8187;SDS011;4135;49.184;9.722;2023-03-05T00:07:46;7.30;;;4.82;;
8187;SDS011;4135;49.184;9.722;2023-03-05T00:10:16;9.77;;;4.70;;
8187;SDS011;4135;49.184;9.722;2023-03-05T00:12:46;9.65;;;4.88;;
8187;SDS011;4135;49.184;9.722;2023-03-05T00:15:16;9.98;;;4.70;;
8187;SDS011;4135;49.184;9.722;2023-03-05T00:17:45;8.15;;;4.82;;
8187;SDS011;4135;49.184;9.722;2023-03-05T00:20:15;8.05;;;4.95;;
8187;SDS011;4135;49.184;9.722;2023-03-05T00:22:44;7.88;;;4.55;;
8187;SDS011;4135;49.184;9.722;2023-03-05T00:25:14;7.90;;;4.43;;
8187;SDS011;4135;49.184;9.722;2023-03-05T00:27:43;8.77;;;5.10;;
8187;SDS011;4135;49.184;9.722;2023-03-05T00:30:13;10.60;;;5.35;;
8187;SDS011;4135;49.184;9.722;2023-03-05T00:32:43;8.75;;;4.47;;
8187;SDS011;4135;49.184;9.722;2023-03-05T00:35:12;7.78;;;4.95;;
8187;SDS011;4135;49.184;9.722;2023-03-05T00:37:42;7.43;;;4.22;;
8187;SDS011;4135;49.184;9.722;2023-03-05T00:40:11;7.32;;;4.53;;
8187;SDS011;4135;49.184;9.722;2023-03-05T00:42:41;7.22;;;3.88;;
8187;SDS011;4135;49.184;9.722;2023-03-05T00:45:11;5.57;;;4.15;;
8187;SDS011;4135;49.184;9.722;2023-03-05T00:47:41;6.65;;;4.40;;
8187;SDS011;4135;49.184;9.722;2023-03-05T00:50:10;8.30;;;4.72;;
8187;SDS011;4135;49.184;9.722;2023-03-05T00:52:40;8.60;;;4.45;;
8187;SDS011;4135;49.184;9.722;2023-03-05T00:55:09;8.45;;;4.38;;
8187;SDS011;4135;49.184;9.722;2023-03-05T00:57:39;5.53;;;4.22;;
8187;SDS011;4135;49.184;9.722;2023-03-05T01:00:08;6.55;;;4.28;;
8187;SDS011;4135;49.184;9.722;2023-03-05T01:02:39;6.45;;;4.30;;
8187;SDS011;4135;49.184;9.722;2023-03-05T01:05:10;7.18;;;4.32;;
8187;SDS011;4135;49.184;9.722;2023-03-05T01:07:40;10.32;;;4.60;;
8187;SDS011;4135;49.184;9.722;2023-03-05T01:10:10;8.05;;;4.57;;
8187;SDS011;4135;49.184;9.722;2023-03-05T01:12:40;9.15;;;4.32;;
8187;SDS011;4135;49.184;9.722;2023-03-05T01:15:10;10.15;;;4.80;;
8187;SDS011;4135;49.184;9.722;2023-03-05T01:17:39;6.50;;;3.95;;
8187;SDS011;4135;49.184;9.722;2023-03-05T01:20:11;9.88;;;5.13;;
8187;SDS011;4135;49.184;9.722;2023-03-05T01:22:41;6.18;;;4.57;;
8187;SDS011;4135;49.184;9.722;2023-03-05T01:25:11;9.95;;;4.70;;
8187;SDS011;4135;49.184;9.722;2023-03-05T01:27:42;7.10;;;4.65;;
8187;SDS011;4135;49.184;9.722;2023-03-05T01:30:12;8.52;;;4.22;;
8187;SDS011;4135;49.184;9.722;2023-03-05T01:32:42;6.75;;;4.45;;
8187;SDS011;4135;49.184;9.722;2023-03-05T01:35:16;9.43;;;4.32;;
8187;SDS011;4135;49.184;9.722;2023-03-05T01:37:47;9.05;;;4.82;;
8187;SDS011;4135;49.184;9.722;2023-03-05T01:40:18;6.05;;;4.28;;
8187;SDS011;4135;49.184;9.722;2023-03-05T01:43:00;6.43;;;3.97;;
8187;SDS011;4135;49.184;9.722;2023-03-05T01:48:46;5.88;;;4.07;;
8187;SDS011;4135;49.184;9.722;2023-03-05T01:51:18;5.47;;;3.80;;
8187;SDS011;4135;49.184;9.722;2023-03-05T01:53:50;7.72;;;4.28;;
8187;SDS011;4135;49.184;9.722;2023-03-05T01:56:21;6.95;;;4.20;;
8187;SDS011;4135;49.184;9.722;2023-03-05T01:58:51;9.07;;;4.93;;
8187;SDS011;4135;49.184;9.722;2023-03-05T02:01:22;8.32;;;4.68;;
8187;SDS011;4135;49.184;9.722;2023-03-05T02:03:51;7.50;;;4.53;;
8187;SDS011;4135;49.184;9.722;2023-03-05T02:06:21;7.18;;;4.50;;
8187;SDS011;4135;49.184;9.722;2023-03-05T02:08:50;8.95;;;4.15;;
8187;SDS011;4135;49.184;9.722;2023-03-05T02:11:20;10.25;;;5.13;;
8187;SDS011;4135;49.184;9.722;2023-03-05T02:13:49;6.90;;;4.13;;
8187;SDS011;4135;49.184;9.722;2023-03-05T02:16:19;9.45;;;4.35;;
8187;SDS011;4135;49.184;9.722;2023-03-05T02:18:48;6.47;;;4.03;;
8187;SDS011;4135;49.184;9.722;2023-03-05T02:21:26;8.43;;;4.80;;
8187;SDS011;4135;49.184;9.722;2023-03-05T02:23:57;9.38;;;4.47;;
8187;SDS011;4135;49.184;9.722;2023-03-05T02:26:27;6.90;;;4.38;;
8187;SDS011;4135;49.184;9.722;2023-03-05T02:28:57;8.85;;;4.50;;
8187;SDS011;4135;49.184;9.722;2023-03-05T02:31:29;6.82;;;4.45;;
8187;SDS011;4135;49.184;9.722;2023-03-05T02:33:59;7.15;;;4.15;;
8187;SDS011;4135;49.184;9.722;2023-03-05T02:36:28;7.75;;;4.30;;
8187;SDS011;4135;49.184;9.722;2023-03-05T02:38:58;8.50;;;4.90;;
8187;SDS011;4135;49.184;9.722;2023-03-05T02:41:28;7.93;;;4.63;;
8187;SDS011;4135;49.184;9.722;2023-03-05T02:43:57;8.20;;;4.82;;
8187;SDS011;4135;49.184;9.722;2023-03-05T02:46:27;11.82;;;4.45;;
8187;SDS011;4135;49.184;9.722;2023-03-05T02:48:56;9.80;;;5.18;;
8187;SDS011;4135;49.184;9.722;2023-03-05T02:51:26;9.40;;;4.70;;
8187;SDS011;4135;49.184;9.722;2023-03-05T02:53:55;6.68;;;3.63;;
8187;SDS011;4135;49.184;9.722;2023-03-05T02:56:25;7.13;;;4.20;;
8187;SDS011;4135;49.184;9.722;2023-03-05T02:58:54;8.80;;;4.70;;
8187;SDS011;4135;49.184;9.722;2023-03-05T03:01:24;8.52;;;5.18;;
8187;SDS011;4135;49.184;9.722;2023-03-05T03:03:56;6.82;;;3.90;;
8187;SDS011;4135;49.184;9.722;2023-03-05T03:06:25;6.57;;;4.28;;
8187;SDS011;4135;49.184;9.722;2023-03-05T03:08:55;7.80;;;4.45;;
8187;SDS011;4135;49.184;9.722;2023-03-05T03:11:25;8.00;;;4.15;;
8187;SDS011;4135;49.184;9.722;2023-03-05T03:13:55;6.20;;;4.13;;
8187;SDS011;4135;49.184;9.722;2023-03-05T03:16:24;7.97;;;4.28;;
8187;SDS011;4135;49.184;9.722;2023-03-05T03:18:54;6.20;;;3.75;;
8187;SDS011;4135;49.184;9.722;2023-03-05T03:21:24;7.68;;;4.75;;
8187;SDS011;4135;49.184;9.722;2023-03-05T03:23:54;8.38;;;4.60;;
8187;SDS011;4135;49.184;9.722;2023-03-05T03:26:24;7.63;;;4.93;;
8187;SDS011;4135;49.184;9.722;2023-03-05T03:28:54;5.38;;;3.80;;
8187;SDS011;4135;49.184;9.722;2023-03-05T03:31:23;6.80;;;4.30;;
8187;SDS011;4135;49.184;9.722;2023-03-05T03:33:53;8.30;;;4.90;;
8187;SDS011;4135;49.184;9.722;2023-03-05T03:36:22;11.95;;;5.18;;
8187;SDS011;4135;49.184;9.722;2023-03-05T03:38:52;10.48;;;4.68;;
8187;SDS011;4135;49.184;9.722;2023-03-05T03:41:22;8.38;;;4.60;;
8187;SDS011;4135;49.184;9.722;2023-03-05T03:43:51;7.53;;;4.43;;
8187;SDS011;4135;49.184;9.722;2023-03-05T03:46:20;6.20;;;3.80;;
8187;SDS011;4135;49.184;9.722;2023-03-05T03:48:50;5.82;;;4.07;;
8187;SDS011;4135;49.184;9.722;2023-03-05T03:51:19;7.22;;;4.32;;
8187;SDS011;4135;49.184;9.722;2023-03-05T03:53:49;10.10;;;5.55;;
8187;SDS011;4135;49.184;9.722;2023-03-05T03:56:18;5.30;;;3.72;;
8187;SDS011;4135;49.184;9.722;2023-03-05T03:58:49;8.00;;;4.78;;
8187;SDS011;4135;49.184;9.722;2023-03-05T04:01:20;7.53;;;4.22;;
8187;SDS011;4135;49.184;9.722;2023-03-05T04:03:49;9.40;;;5.00;;
8187;SDS011;4135;49.184;9.722;2023-03-05T04:06:19;7.55;;;4.53;;
8187;SDS011;4135;49.184;9.722;2023-03-05T04:08:48;8.57;;;4.18;;
8187;SDS011;4135;49.184;9.722;2023-03-05T04:11:18;6.93;;;4.18;;
8187;SDS011;4135;49.184;9.722;2023-03-05T04:13:48;7.43;;;4.30;;
8187;SDS011;4135;49.184;9.722;2023-03-05T04:16:17;8.98;;;4.93;;
8187;SDS011;4135;49.184;9.722;2023-03-05T04:18:47;8.85;;;4.70;;
8187;SDS011;4135;49.184;9.722;2023-03-05T04:21:16;8.35;;;4.25;;
8187;SDS011;4135;49.184;9.722;2023-03-05T04:23:46;6.88;;;4.50;;
8187;SDS011;4135;49.184;9.722;2023-03-05T04:26:16;7.80;;;4.57;;
8187;SDS011;4135;49.184;9.722;2023-03-05T04:28:45;7.47;;;4.03;;
8187;SDS011;4135;49.184;9.722;2023-03-05T04:31:16;7.13;;;4.63;;
8187;SDS011;4135;49.184;9.722;2023-03-05T04:33:45;6.70;;;4.60;;
8187;SDS011;4135;49.184;9.722;2023-03-05T04:36:15;9.68;;;4.15;;
8187;SDS011;4135;49.184;9.722;2023-03-05T04:38:44;12.45;;;4.25;;
8187;SDS011;4135;49.184;9.722;2023-03-05T04:41:14;6.93;;;4.32;;
8187;SDS011;4135;49.184;9.722;2023-03-05T04:43:43;5.85;;;3.85;;
8187;SDS011;4135;49.184;9.722;2023-03-05T04:46:13;8.50;;;4.95;;
8187;SDS011;4135;49.184;9.722;2023-03-05T04:48:43;7.25;;;4.20;;
8187;SDS011;4135;49.184;9.722;2023-03-05T04:51:12;6.85;;;4.40;;
8187;SDS011;4135;49.184;9.722;2023-03-05T04:53:42;7.18;;;4.22;;
8187;SDS011;4135;49.184;9.722;2023-03-05T04:56:11;7.82;;;4.25;;
8187;SDS011;4135;49.184;9.722;2023-03-05T04:58:41;5.90;;;3.85;;
8187;SDS011;4135;49.184;9.722;2023-03-05T05:01:10;7.97;;;4.22;;
8187;SDS011;4135;49.184;9.722;2023-03-05T05:03:40;8.25;;;4.50;;
8187;SDS011;4135;49.184;9.722;2023-03-05T05:06:09;7.47;;;4.75;;
8187;SDS011;4135;49.184;9.722;2023-03-05T05:08:39;7.18;;;4.57;;
8187;SDS011;4135;49.184;9.722;2023-03-05T05:11:09;6.85;;;4.57;;
8187;SDS011;4135;49.184;9.722;2023-03-05T05:13:42;8.70;;;4.22;;
8187;SDS011;4135;49.184;9.722;2023-03-05T05:16:11;8.60;;;4.70;;
8187;SDS011;4135;49.184;9.722;2023-03-05T05:18:41;7.30;;;4.50;;
8187;SDS011;4135;49.184;9.722;2023-03-05T05:21:11;7.57;;;4.05;;
8187;SDS011;4135;49.184;9.722;2023-03-05T05:23:43;12.45;;;4.45;;
8187;SDS011;4135;49.184;9.722;2023-03-05T05:26:12;8.73;;;4.03;;
8187;SDS011;4135;49.184;9.722;2023-03-05T05:28:42;11.23;;;4.40;;
8187;SDS011;4135;49.184;9.722;2023-03-05T05:31:13;5.82;;;3.97;;
8187;SDS011;4135;49.184;9.722;2023-03-05T05:33:44;6.32;;;4.05;;
8187;SDS011;4135;49.184;9.722;2023-03-05T05:36:15;7.40;;;4.47;;
8187;SDS011;4135;49.184;9.722;2023-03-05T05:38:47;6.53;;;4.03;;
8187;SDS011;4135;49.184;9.722;2023-03-05T05:41:17;5.97;;;4.28;;
8187;SDS011;4135;49.184;9.722;2023-03-05T05:43:47;8.10;;;4.40;;
8187;SDS011;4135;49.184;9.722;2023-03-05T05:46:18;8.32;;;4.88;;
8187;SDS011;4135;49.184;9.722;2023-03-05T05:48:48;5.43;;;3.88;;
8187;SDS011;4135;49.184;9.722;2023-03-05T05:51:19;6.72;;;5.03;;
8187;SDS011;4135;49.184;9.722;2023-03-05T05:53:50;7.60;;;3.90;;
8187;SDS011;4135;49.184;9.722;2023-03-05T05:56:20;9.45;;;4.22;;
8187;SDS011;4135;49.184;9.722;2023-03-05T05:58:49;5.82;;;3.83;;
8187;SDS011;4135;49.184;9.722;2023-03-05T06:01:27;6.65;;;4.28;;
8187;SDS011;4135;49.184;9.722;2023-03-05T06:03:58;8.00;;;4.45;;
8187;SDS011;4135;49.184;9.722;2023-03-05T06:06:28;8.75;;;4.95;;
8187;SDS011;4135;49.184;9.722;2023-03-05T06:08:58;8.23;;;4.90;;
8187;SDS011;4135;49.184;9.722;2023-03-05T06:11:28;8.88;;;4.43;;
8187;SDS011;4135;49.184;9.722;2023-03-05T06:13:58;8.75;;;4.85;;
8187;SDS011;4135;49.184;9.722;2023-03-05T06:16:30;5.95;;;4.30;;
8187;SDS011;4135;49.184;9.722;2023-03-05T06:19:00;9.27;;;4.97;;
8187;SDS011;4135;49.184;9.722;2023-03-05T06:21:32;6.88;;;4.65;;
8187;SDS011;4135;49.184;9.722;2023-03-05T06:24:01;7.07;;;4.00;;
8187;SDS011;4135;49.184;9.722;2023-03-05T06:26:31;6.65;;;4.20;;
8187;SDS011;4135;49.184;9.722;2023-03-05T06:29:01;6.70;;;4.47;;
8187;SDS011;4135;49.184;9.722;2023-03-05T06:31:31;7.65;;;4.50;;
8187;SDS011;4135;49.184;9.722;2023-03-05T06:34:01;9.63;;;4.72;;
8187;SDS011;4135;49.184;9.722;2023-03-05T06:36:30;7.05;;;4.50;;
8187;SDS011;4135;49.184;9.722;2023-03-05T06:39:00;8.02;;;4.18;;
8187;SDS011;4135;49.184;9.722;2023-03-05T06:41:31;8.68;;;4.28;;
8187;SDS011;4135;49.184;9.722;2023-03-05T06:44:01;8.27;;;4.78;;
8187;SDS011;4135;49.184;9.722;2023-03-05T06:46:32;8.00;;;4.18;;
8187;SDS011;4135;49.184;9.722;2023-03-05T06:49:05;8.35;;;4.53;;
8187;SDS011;4135;49.184;9.722;2023-03-05T06:51:37;10.43;;;4.88;;
8187;SDS011;4135;49.184;9.722;2023-03-05T06:54:08;8.98;;;4.63;;
8187;SDS011;4135;49.184;9.722;2023-03-05T06:56:41;10.20;;;4.45;;
8187;SDS011;4135;49.184;9.722;2023-03-05T06:59:13;10.20;;;5.07;;
8187;SDS011;4135;49.184;9.722;2023-03-05T07:01:44;8.23;;;4.68;;
8187;SDS011;4135;49.184;9.722;2023-03-05T07:04:13;9.45;;;4.50;;
8187;SDS011;4135;49.184;9.722;2023-03-05T07:06:43;7.28;;;4.63;;
8187;SDS011;4135;49.184;9.722;2023-03-05T07:09:14;7.65;;;4.50;;
8187;SDS011;4135;49.184;9.722;2023-03-05T07:11:44;10.18;;;4.20;;
8187;SDS011;4135;49.184;9.722;2023-03-05T07:14:13;7.82;;;4.68;;
8187;SDS011;4135;49.184;9.722;2023-03-05T07:16:43;5.18;;;4.03;;
8187;SDS011;4135;49.184;9.722;2023-03-05T07:19:12;6.65;;;4.93;;
8187;SDS011;4135;49.184;9.722;2023-03-05T07:21:42;10.05;;;5.13;;
8187;SDS011;4135;49.184;9.722;2023-03-05T07:24:11;11.38;;;4.72;;
8187;SDS011;4135;49.184;9.722;2023-03-05T07:26:41;6.88;;;4.50;;
8187;SDS011;4135;49.184;9.722;2023-03-05T07:29:11;9.23;;;5.18;;
8187;SDS011;4135;49.184;9.722;2023-03-05T07:31:40;7.93;;;4.38;;
8187;SDS011;4135;49.184;9.722;2023-03-05T07:34:10;9.07;;;4.65;;
8187;SDS011;4135;49.184;9.722;2023-03-05T07:36:39;10.50;;;4.38;;
8187;SDS011;4135;49.184;9.722;2023-03-05T07:39:10;11.45;;;4.75;;
8187;SDS011;4135;49.184;9.722;2023-03-05T07:41:40;7.22;;;4.70;;
8187;SDS011;4135;49.184;9.722;2023-03-05T07:44:10;10.30;;;4.13;;
8187;SDS011;4135;49.184;9.722;2023-03-05T07:46:40;9.02;;;4.25;;
8187;SDS011;4135;49.184;9.722;2023-03-05T07:49:09;11.20;;;5.28;;
8187;SDS011;4135;49.184;9.722;2023-03-05T07:51:39;13.55;;;5.63;;
8187;SDS011;4135;49.184;9.722;2023-03-05T07:54:09;8.35;;;4.30;;
8187;SDS011;4135;49.184;9.722;2023-03-05T07:56:38;12.15;;;5.25;;
8187;SDS011;4135;49.184;9.722;2023-03-05T07:59:10;8.85;;;4.78;;
8187;SDS011;4135;49.184;9.722;2023-03-05T08:01:41;11.20;;;4.35;;
8187;SDS011;4135;49.184;9.722;2023-03-05T08:04:10;10.50;;;4.47;;
8187;SDS011;4135;49.184;9.722;2023-03-05T08:06:40;14.10;;;4.38;;
8187;SDS011;4135;49.184;9.722;2023-03-05T08:09:10;8.27;;;4.25;;
8187;SDS011;4135;49.184;9.722;2023-03-05T08:11:39;13.25;;;4.80;;
8187;SDS011;4135;49.184;9.722;2023-03-05T08:14:09;8.88;;;4.32;;
8187;SDS011;4135;49.184;9.722;2023-03-05T08:16:39;11.27;;;4.38;;
8187;SDS011;4135;49.184;9.722;2023-03-05T08:19:09;7.50;;;4.28;;
8187;SDS011;4135;49.184;9.722;2023-03-05T08:21:39;12.82;;;5.03;;
8187;SDS011;4135;49.184;9.722;2023-03-05T08:24:09;7.80;;;3.95;;
8187;SDS011;4135;49.184;9.722;2023-03-05T08:26:39;10.13;;;5.32;;
8187;SDS011;4135;49.184;9.722;2023-03-05T08:29:09;9.65;;;5.60;;
8187;SDS011;4135;49.184;9.722;2023-03-05T08:31:39;8.68;;;4.65;;
8187;SDS011;4135;49.184;9.722;2023-03-05T08:34:13;8.27;;;5.05;;
8187;SDS011;4135;49.184;9.722;2023-03-05T08:36:43;8.80;;;4.70;;
8187;SDS011;4135;49.184;9.722;2023-03-05T08:39:13;10.82;;;5.78;;
8187;SDS011;4135;49.184;9.722;2023-03-05T08:41:43;12.65;;;6.60;;
8187;SDS011;4135;49.184;9.722;2023-03-05T08:44:12;12.50;;;6.90;;
8187;SDS011;4135;49.184;9.722;2023-03-05T08:46:42;21.70;;;7.38;;
8187;SDS011;4135;49.184;9.722;2023-03-05T08:49:12;11.25;;;6.65;;
8187;SDS011;4135;49.184;9.722;2023-03-05T08:51:41;13.93;;;6.38;;
8187;SDS011;4135;49.184;9.722;2023-03-05T08:54:11;15.60;;;6.05;;
8187;SDS011;4135;49.184;9.722;2023-03-05T08:56:40;10.13;;;5.53;;
8187;SDS011;4135;49.184;9.722;2023-03-05T08:59:10;10.75;;;5.70;;
8187;SDS011;4135;49.184;9.722;2023-03-05T09:01:39;10.75;;;5.10;;
8187;SDS011;4135;49.184;9.722;2023-03-05T09:04:09;9.35;;;5.47;;
8187;SDS011;4135;49.184;9.722;2023-03-05T09:06:38;12.88;;;5.68;;
8187;SDS011;4135;49.184;9.722;2023-03-05T09:09:08;10.90;;;4.97;;
8187;SDS011;4135;49.184;9.722;2023-03-05T09:11:38;7.82;;;4.57;;
8187;SDS011;4135;49.184;9.722;2023-03-05T09:14:07;11.75;;;5.30;;
8187;SDS011;4135;49.184;9.722;2023-03-05T09:16:38;8.60;;;4.40;;
8187;SDS011;4135;49.184;9.722;2023-03-05T09:19:08;8.07;;;4.88;;
8187;SDS011;4135;49.184;9.722;2023-03-05T09:21:40;12.25;;;5.40;;
8187;SDS011;4135;49.184;9.722;2023-03-05T09:24:10;9.88;;;5.45;;
8187;SDS011;4135;49.184;9.722;2023-03-05T09:26:40;14.00;;;5.47;;
8187;SDS011;4135;49.184;9.722;2023-03-05T09:29:10;11.18;;;4.68;;
8187;SDS011;4135;49.184;9.722;2023-03-05T09:31:40;8.20;;;4.60;;
8187;SDS011;4135;49.184;9.722;2023-03-05T09:34:11;12.02;;;5.43;;
8187;SDS011;4135;49.184;9.722;2023-03-05T09:36:40;8.43;;;4.88;;
8187;SDS011;4135;49.184;9.722;2023-03-05T09:39:10;7.78;;;4.50;;
8187;SDS011;4135;49.184;9.722;2023-03-05T09:45:09;7.30;;;4.38;;
8187;SDS011;4135;49.184;9.722;2023-03-05T09:48:05;8.70;;;4.70;;
8187;SDS011;4135;49.184;9.722;2023-03-05T09:50:50;9.35;;;4.78;;
8187;SDS011;4135;49.184;9.722;2023-03-05T09:53:42;6.75;;;3.90;;
8187;SDS011;4135;49.184;9.722;2023-03-05T09:58:54;9.35;;;4.63;;
8187;SDS011;4135;49.184;9.722;2023-03-05T10:01:28;6.40;;;4.20;;
8187;SDS011;4135;49.184;9.722;2023-03-05T10:04:27;9.02;;;5.10;;
8187;SDS011;4135;49.184;9.722;2023-03-05T10:09:58;9.57;;;5.30;;
8187;SDS011;4135;49.184;9.722;2023-03-05T10:18:20;9.93;;;4.57;;
8187;SDS011;4135;49.184;9.722;2023-03-05T10:21:02;21.25;;;6.07;;
8187;SDS011;4135;49.184;9.722;2023-03-05T10:28:57;9.68;;;4.82;;
8187;SDS011;4135;49.184;9.722;2023-03-05T10:39:58;15.07;;;5.97;;
8187;SDS011;4135;49.184;9.722;2023-03-05T10:45:28;15.32;;;6.53;;
8187;SDS011;4135;49.184;9.722;2023-03-05T10:48:26;17.85;;;5.47;;
8187;SDS011;4135;49.184;9.722;2023-03-05T10:50:59;16.92;;;5.25;;
8187;SDS011;4135;49.184;9.722;2023-03-05T10:53:36;15.35;;;5.90;;
8187;SDS011;4135;49.184;9.722;2023-03-05T10:56:12;16.23;;;5.38;;
8187;SDS011;4135;49.184;9.722;2023-03-05T10:58:42;14.27;;;5.18;;
8187;SDS011;4135;49.184;9.722;2023-03-05T11:03:51;10.80;;;5.05;;
8187;SDS011;4135;49.184;9.722;2023-03-05T11:06:38;13.35;;;4.60;;
8187;SDS011;4135;49.184;9.722;2023-03-05T11:09:28;9.43;;;4.60;;
8187;SDS011;4135;49.184;9.722;2023-03-05T11:12:01;13.50;;;5.10;;
8187;SDS011;4135;49.184;9.722;2023-03-05T11:14:32;10.48;;;4.88;;
8187;SDS011;4135;49.184;9.722;2023-03-05T11:17:47;18.65;;;4.95;;
8187;SDS011;4135;49.184;9.722;2023-03-05T11:19:57;13.60;;;4.47;;
8187;SDS011;4135;49.184;9.722;2023-03-05T11:25:59;11.25;;;4.88;;
8187;SDS011;4135;49.184;9.722;2023-03-05T11:28:32;12.95;;;4.43;;
8187;SDS011;4135;49.184;9.722;2023-03-05T11:33:36;14.82;;;5.05;;
8187;SDS011;4135;49.184;9.722;2023-03-05T11:36:11;13.75;;;4.88;;
8187;SDS011;4135;49.184;9.722;2023-03-05T11:44:22;18.70;;;10.25;;
8187;SDS011;4135;49.184;9.722;2023-03-05T11:46:57;18.23;;;7.97;;
8187;SDS011;4135;49.184;9.722;2023-03-05T11:49:31;10.73;;;6.63;;
8187;SDS011;4135;49.184;9.722;2023-03-05T11:54:52;15.73;;;6.13;;
8187;SDS011;4135;49.184;9.722;2023-03-05T11:57:32;16.40;;;6.32;;
8187;SDS011;4135;49.184;9.722;2023-03-05T12:00:11;14.20;;;5.65;;
8187;SDS011;4135;49.184;9.722;2023-03-05T12:02:46;11.63;;;6.03;;
8187;SDS011;4135;49.184;9.722;2023-03-05T12:05:19;10.52;;;5.85;;
8187;SDS011;4135;49.184;9.722;2023-03-05T12:07:52;11.48;;;5.38;;
8187;SDS011;4135;49.184;9.722;2023-03-05T12:10:24;12.43;;;5.18;;
8187;SDS011;4135;49.184;9.722;2023-03-05T12:23:24;14.88;;;4.95;;
8187;SDS011;4135;49.184;9.722;2023-03-05T12:25:56;16.65;;;4.90;;
8187;SDS011;4135;49.184;9.722;2023-03-05T12:33:55;10.65;;;5.60;;
8187;SDS011;4135;49.184;9.722;2023-03-05T12:36:31;8.45;;;4.45;;
8187;SDS011;4135;49.184;9.722;2023-03-05T12:39:40;8.20;;;4.40;;
8187;SDS011;4135;49.184;9.722;2023-03-05T12:47:44;12.05;;;4.85;;
8187;SDS011;4135;49.184;9.722;2023-03-05T12:53:16;7.93;;;3.97;;
8187;SDS011;4135;49.184;9.722;2023-03-05T12:58:26;14.38;;;3.97;;
8187;SDS011;4135;49.184;9.722;2023-03-05T13:03:44;9.02;;;4.53;;
8187;SDS011;4135;49.184;9.722;2023-03-05T13:06:38;12.30;;;4.90;;
8187;SDS011;4135;49.184;9.722;2023-03-05T13:11:41;6.47;;;3.90;;
8187;SDS011;4135;49.184;9.722;2023-03-05T13:17:00;10.48;;;4.43;;
8187;SDS011;4135;49.184;9.722;2023-03-05T13:19:30;8.43;;;4.35;;
8187;SDS011;4135;49.184;9.722;2023-03-05T13:22:02;8.48;;;3.90;;
8187;SDS011;4135;49.184;9.722;2023-03-05T13:24:38;6.93;;;3.55;;
8187;SDS011;4135;49.184;9.722;2023-03-05T13:27:30;8.20;;;3.95;;
8187;SDS011;4135;49.184;9.722;2023-03-05T13:30:00;8.55;;;3.90;;
8187;SDS011;4135;49.184;9.722;2023-03-05T13:32:31;9.10;;;4.43;;
8187;SDS011;4135;49.184;9.722;2023-03-05T13:35:01;9.98;;;4.22;;
8187;SDS011;4135;49.184;9.722;2023-03-05T13:37:30;12.05;;;4.50;;
8187;SDS011;4135;49.184;9.722;2023-03-05T13:40:04;7.35;;;3.53;;
8187;SDS011;4135;49.184;9.722;2023-03-05T13:42:47;4.85;;;3.50;;
8187;SDS011;4135;49.184;9.722;2023-03-05T13:48:00;8.20;;;3.95;;
8187;SDS011;4135;49.184;9.722;2023-03-05T13:50:35;8.25;;;3.85;;
8187;SDS011;4135;49.184;9.722;2023-03-05T13:55:57;5.55;;;3.33;;
8187;SDS011;4135;49.184;9.722;2023-03-05T13:58:48;4.50;;;3.13;;
8187;SDS011;4135;49.184;9.722;2023-03-05T14:04:00;6.13;;;3.45;;
8187;SDS011;4135;49.184;9.722;2023-03-05T14:06:38;4.78;;;3.10;;
8187;SDS011;4135;49.184;9.722;2023-03-05T14:11:55;10.50;;;3.28;;
8187;SDS011;4135;49.184;9.722;2023-03-05T14:14:43;9.25;;;3.30;;
8187;SDS011;4135;49.184;9.722;2023-03-05T14:17:46;8.07;;;3.80;;
8187;SDS011;4135;49.184;9.722;2023-03-05T14:22:52;5.47;;;3.47;;
8187;SDS011;4135;49.184;9.722;2023-03-05T14:25:34;8.63;;;3.83;;
8187;SDS011;4135;49.184;9.722;2023-03-05T14:30:45;9.77;;;3.70;;
8187;SDS011;4135;49.184;9.722;2023-03-05T14:33:22;6.45;;;3.20;;
8187;SDS011;4135;49.184;9.722;2023-03-05T14:35:56;10.30;;;4.03;;
8187;SDS011;4135;49.184;9.722;2023-03-05T14:38:31;10.57;;;3.80;;
8187;SDS011;4135;49.184;9.722;2023-03-05T14:44:10;8.02;;;3.97;;
8187;SDS011;4135;49.184;9.722;2023-03-05T14:46:41;11.05;;;3.50;;
8187;SDS011;4135;49.184;9.722;2023-03-05T14:49:11;5.60;;;2.83;;
8187;SDS011;4135;49.184;9.722;2023-03-05T14:51:41;5.10;;;2.95;;
8187;SDS011;4135;49.184;9.722;2023-03-05T14:54:19;8.13;;;3.42;;
8187;SDS011;4135;49.184;9.722;2023-03-05T14:56:51;6.22;;;3.42;;
8187;SDS011;4135;49.184;9.722;2023-03-05T14:59:21;4.47;;;2.95;;
8187;SDS011;4135;49.184;9.722;2023-03-05T15:01:51;6.50;;;3.88;;
8187;SDS011;4135;49.184;9.722;2023-03-05T15:04:20;5.95;;;3.15;;
8187;SDS011;4135;49.184;9.722;2023-03-05T15:06:50;5.72;;;3.13;;
8187;SDS011;4135;49.184;9.722;2023-03-05T15:09:19;8.45;;;3.92;;
8187;SDS011;4135;49.184;9.722;2023-03-05T15:11:49;5.47;;;3.10;;
8187;SDS011;4135;49.184;9.722;2023-03-05T15:14:18;6.00;;;3.53;;
8187;SDS011;4135;49.184;9.722;2023-03-05T15:16:48;6.07;;;3.47;;
8187;SDS011;4135;49.184;9.722;2023-03-05T15:19:17;5.82;;;3.30;;
8187;SDS011;4135;49.184;9.722;2023-03-05T15:21:47;5.50;;;3.42;;
8187;SDS011;4135;49.184;9.722;2023-03-05T15:24:16;5.10;;;3.13;;
8187;SDS011;4135;49.184;9.722;2023-03-05T15:26:46;4.63;;;2.85;;
8187;SDS011;4135;49.184;9.722;2023-03-05T15:29:15;9.80;;;3.38;;
8187;SDS011;4135;49.184;9.722;2023-03-05T15:31:45;7.88;;;3.63;;
8187;SDS011;4135;49.184;9.722;2023-03-05T15:34:15;6.32;;;3.65;;
8187;SDS011;4135;49.184;9.722;2023-03-05T15:36:44;11.07;;;5.13;;
8187;SDS011;4135;49.184;9.722;2023-03-05T15:39:14;8.73;;;4.88;;
8187;SDS011;4135;49.184;9.722;2023-03-05T15:41:43;8.88;;;4.43;;
8187;SDS011;4135;49.184;9.722;2023-03-05T15:44:13;8.45;;;4.75;;
8187;SDS011;4135;49.184;9.722;2023-03-05T15:46:42;6.43;;;4.05;;
8187;SDS011;4135;49.184;9.722;2023-03-05T15:49:12;3.72;;;3.22;;
8187;SDS011;4135;49.184;9.722;2023-03-05T15:51:42;9.88;;;3.63;;
8187;SDS011;4135;49.184;9.722;2023-03-05T15:54:12;5.75;;;3.97;;
8187;SDS011;4135;49.184;9.722;2023-03-05T15:56:41;7.65;;;4.10;;
8187;SDS011;4135;49.184;9.722;2023-03-05T15:59:11;8.43;;;3.65;;
8187;SDS011;4135;49.184;9.722;2023-03-05T16:01:42;10.05;;;3.78;;
8187;SDS011;4135;49.184;9.722;2023-03-05T16:04:16;8.88;;;3.60;;
8187;SDS011;4135;49.184;9.722;2023-03-05T16:06:46;7.18;;;3.63;;
8187;SDS011;4135;49.184;9.722;2023-03-05T16:09:17;8.68;;;3.28;;
8187;SDS011;4135;49.184;9.722;2023-03-05T16:11:48;4.07;;;2.70;;
8187;SDS011;4135;49.184;9.722;2023-03-05T16:14:20;4.25;;;3.13;;
8187;SDS011;4135;49.184;9.722;2023-03-05T16:16:52;5.30;;;3.33;;
8187;SDS011;4135;49.184;9.722;2023-03-05T16:19:23;6.63;;;3.47;;
8187;SDS011;4135;49.184;9.722;2023-03-05T16:21:54;6.90;;;3.75;;
8187;SDS011;4135;49.184;9.722;2023-03-05T16:24:24;4.88;;;3.50;;
8187;SDS011;4135;49.184;9.722;2023-03-05T16:26:54;4.45;;;2.75;;
8187;SDS011;4135;49.184;9.722;2023-03-05T16:29:24;8.13;;;3.20;;
8187;SDS011;4135;49.184;9.722;2023-03-05T16:31:53;7.47;;;3.85;;
8187;SDS011;4135;49.184;9.722;2023-03-05T16:34:23;5.55;;;3.25;;
8187;SDS011;4135;49.184;9.722;2023-03-05T16:36:53;6.80;;;3.88;;
8187;SDS011;4135;49.184;9.722;2023-03-05T16:39:22;6.22;;;3.10;;
8187;SDS011;4135;49.184;9.722;2023-03-05T16:41:52;10.13;;;3.15;;
8187;SDS011;4135;49.184;9.722;2023-03-05T16:44:22;5.90;;;3.45;;
8187;SDS011;4135;49.184;9.722;2023-03-05T16:46:51;9.32;;;3.33;;
8187;SDS011;4135;49.184;9.722;2023-03-05T16:49:21;9.00;;;3.72;;
8187;SDS011;4135;49.184;9.722;2023-03-05T16:51:51;6.03;;;3.03;;
8187;SDS011;4135;49.184;9.722;2023-03-05T16:54:21;5.88;;;2.67;;
8187;SDS011;4135;49.184;9.722;2023-03-05T16:56:50;4.20;;;2.80;;
8187;SDS011;4135;49.184;9.722;2023-03-05T16:59:20;5.35;;;3.13;;
8187;SDS011;4135;49.184;9.722;2023-03-05T17:01:49;4.93;;;3.42;;
8187;SDS011;4135;49.184;9.722;2023-03-05T17:04:20;4.43;;;2.90;;
8187;SDS011;4135;49.184;9.722;2023-03-05T17:06:50;5.32;;;3.53;;
8187;SDS011;4135;49.184;9.722;2023-03-05T17:09:20;6.00;;;3.20;;
8187;SDS011;4135;49.184;9.722;2023-03-05T17:11:52;5.45;;;3.10;;
8187;SDS011;4135;49.184;9.722;2023-03-05T17:14:22;8.25;;;3.55;;
8187;SDS011;4135;49.184;9.722;2023-03-05T17:16:52;5.22;;;2.63;;
8187;SDS011;4135;49.184;9.722;2023-03-05T17:19:21;3.83;;;2.10;;
8187;SDS011;4135;49.184;9.722;2023-03-05T17:21:51;4.80;;;3.03;;
8187;SDS011;4135;49.184;9.722;2023-03-05T17:24:20;5.97;;;2.92;;